createdAt,value
2022-08-07T00:01:12.552Z,99255.25
2022-08-07T00:03:48.789Z,99243.94
2022-08-07T00:06:15.246Z,99247.34
2022-08-07T00:08:44.323Z,99252.50
2022-08-07T00:11:11.126Z,99252.38
2022-08-07T00:13:44.741Z,99246.88
2022-08-07T00:16:11.547Z,99252.34
2022-08-07T00:18:43.800Z,99245.38
2022-08-07T00:21:56.887Z,99249.78
2022-08-07T00:23:56.714Z,99239.13
2022-08-07T00:26:36.211Z,99240.41
2022-08-07T00:29:09.687Z,99238.84
2022-08-07T00:31:42.147Z,99245.69
2022-08-07T00:34:09.315Z,99234.88
2022-08-07T00:36:36.216Z,99232.66
2022-08-07T00:39:05.121Z,99236.91
2022-08-07T00:41:31.861Z,99238.75
2022-08-07T00:44:03.706Z,99231.88
2022-08-07T00:46:30.922Z,99229.78
2022-08-07T00:49:03.005Z,99220.47
2022-08-07T00:51:41.917Z,99224.97
2022-08-07T00:54:16.385Z,99224.75
2022-08-07T00:56:46.075Z,99226.03
2022-08-07T00:59:16.338Z,99222.16
2022-08-07T01:01:44.490Z,99224.47
2022-08-07T01:04:11.239Z,99223.66
2022-08-07T01:06:50.184Z,99219.72
2022-08-07T01:10:03.999Z,99216.59
2022-08-07T01:12:27.377Z,99217.13
2022-08-07T01:14:49.389Z,99217.16
2022-08-07T01:17:23.468Z,99215.84
2022-08-07T01:19:54.263Z,99211.69
2022-08-07T01:22:22.888Z,99212.25
2022-08-07T01:24:55.935Z,99208.06
2022-08-07T01:27:22.353Z,99211.44
2022-08-07T01:29:50.578Z,99208.84
2022-08-07T01:32:17.181Z,99205.81
2022-08-07T01:34:47.207Z,99202.47
2022-08-07T01:37:17.146Z,99212.38
2022-08-07T01:39:46.870Z,99206.34
2022-08-07T01:42:39.639Z,99214.91
2022-08-07T01:45:00.218Z,99210.19
2022-08-07T01:48:21.602Z,99205.75
2022-08-07T01:50:13.111Z,99208.53
2022-08-07T01:52:49.789Z,99197.50
2022-08-07T01:55:24.140Z,99202.66
2022-08-07T01:58:06.337Z,99193.91
2022-08-07T02:00:38.772Z,99203.00
2022-08-07T02:03:21.252Z,99190.38
2022-08-07T02:05:59.408Z,99191.91
2022-08-07T02:08:26.662Z,99193.34
2022-08-07T02:10:55.365Z,99186.28
2022-08-07T02:13:56.709Z,99185.03
2022-08-07T02:16:12.048Z,99180.56
2022-08-07T02:18:38.505Z,99176.34
2022-08-07T02:21:13.796Z,99181.66
2022-08-07T02:23:42.903Z,99172.56
2022-08-07T02:26:32.366Z,99181.66
2022-08-07T02:28:57.451Z,99176.91
2022-08-07T02:31:28.781Z,99175.34
2022-08-07T02:34:03.611Z,99179.03
2022-08-07T02:36:32.974Z,99172.28
2022-08-07T02:38:59.929Z,99176.81
2022-08-07T02:41:33.316Z,99179.16
2022-08-07T02:44:03.610Z,99171.66
2022-08-07T02:46:31.449Z,99177.19
2022-08-07T02:48:58.091Z,99179.06
2022-08-07T02:51:42.953Z,99175.00
2022-08-07T02:54:10.860Z,99176.56
2022-08-07T02:56:39.658Z,99186.50
2022-08-07T02:59:09.594Z,99177.00
2022-08-07T03:01:39.973Z,99172.00
2022-08-07T03:04:07.814Z,99169.66
2022-08-07T03:06:39.847Z,99169.59
2022-08-07T03:09:07.457Z,99170.47
2022-08-07T03:11:38.650Z,99176.75
2022-08-07T03:14:05.918Z,99173.94
2022-08-07T03:16:32.567Z,99173.19
2022-08-07T03:18:59.490Z,99176.88
2022-08-07T03:21:27.429Z,99177.47
2022-08-07T03:24:17.909Z,99172.91
2022-08-07T03:26:51.262Z,99168.50
2022-08-07T03:29:25.025Z,99171.00
2022-08-07T03:31:53.988Z,99173.59
2022-08-07T03:34:22.860Z,99168.03
2022-08-07T03:36:53.780Z,99163.31
2022-08-07T03:39:59.402Z,99166.44
2022-08-07T03:42:06.617Z,99162.78
2022-08-07T03:44:36.217Z,99167.34
2022-08-07T03:47:13.802Z,99158.91
2022-08-07T03:49:41.203Z,99159.16
2022-08-07T03:52:07.554Z,99170.09
2022-08-07T03:54:54.476Z,99178.16
2022-08-07T03:58:33.395Z,99171.28
2022-08-07T04:00:09.016Z,99172.09
2022-08-07T04:02:36.950Z,99162.75
2022-08-07T04:05:07.961Z,99171.56
2022-08-07T04:07:42.374Z,99166.53
2022-08-07T04:10:15.767Z,99169.19
2022-08-07T04:12:45.829Z,99173.75
2022-08-07T04:15:13.673Z,99173.38
2022-08-07T04:18:58.299Z,99171.22
2022-08-07T04:20:28.686Z,99172.97
2022-08-07T04:23:01.315Z,99176.59
2022-08-07T04:25:28.990Z,99170.94
2022-08-07T04:27:58.968Z,99173.66
2022-08-07T04:30:39.527Z,99178.44
2022-08-07T04:33:13.799Z,99171.94
2022-08-07T04:35:40.443Z,99176.38
2022-08-07T04:38:07.909Z,99176.84
2022-08-07T04:40:34.854Z,99173.25
2022-08-07T04:43:03.631Z,99180.34
2022-08-07T04:45:57.750Z,99180.81
2022-08-07T04:48:24.168Z,99182.81
2022-08-07T04:50:51.975Z,99177.66
2022-08-07T04:54:00.973Z,99179.22
2022-08-07T04:58:15.943Z,99172.81
2022-08-07T05:00:10.654Z,99184.69
2022-08-07T05:02:16.662Z,99192.63
2022-08-07T05:04:50.228Z,99189.19
2022-08-07T05:07:23.302Z,99196.56
2022-08-07T05:09:58.431Z,99191.50
2022-08-07T05:12:32.306Z,99193.16
2022-08-07T05:15:23.638Z,99187.75
2022-08-07T05:17:55.243Z,99195.22
2022-08-07T05:20:26.853Z,99198.47
2022-08-07T05:22:54.747Z,99200.03
2022-08-07T05:25:25.810Z,99197.56
2022-08-07T05:28:20.568Z,99203.75
2022-08-07T05:30:49.602Z,99200.38
2022-08-07T05:33:18.058Z,99199.59
2022-08-07T05:35:47.851Z,99207.56
2022-08-07T05:38:59.452Z,99206.66
2022-08-07T05:41:01.325Z,99206.78
2022-08-07T05:43:50.059Z,99216.28
2022-08-07T05:46:26.416Z,99208.75
2022-08-07T05:48:57.403Z,99222.03
2022-08-07T05:51:25.726Z,99218.13
2022-08-07T05:54:12.731Z,99224.97
2022-08-07T05:56:44.340Z,99226.13
2022-08-07T05:59:14.545Z,99226.31
2022-08-07T06:01:40.927Z,99229.88
2022-08-07T06:04:07.315Z,99237.22
2022-08-07T06:06:34.048Z,99226.00
2022-08-07T06:09:04.388Z,99225.66
2022-08-07T06:11:31.462Z,99222.59
2022-08-07T06:14:11.595Z,99228.13
2022-08-07T06:16:40.494Z,99227.31
2022-08-07T06:19:06.861Z,99234.38
2022-08-07T06:22:15.026Z,99231.91
2022-08-07T06:24:46.178Z,99231.53
2022-08-07T06:27:05.991Z,99244.38
2022-08-07T06:29:34.452Z,99240.91
2022-08-07T06:32:05.275Z,99242.75
2022-08-07T06:34:31.657Z,99244.72
2022-08-07T06:36:58.008Z,99242.31
2022-08-07T06:40:17.916Z,99243.31
2022-08-07T06:42:13.579Z,99245.13
2022-08-07T06:44:39.971Z,99243.69
2022-08-07T06:47:10.075Z,99243.59
2022-08-07T06:49:51.752Z,99241.06
2022-08-07T06:52:18.912Z,99236.06
2022-08-07T06:55:32.147Z,99234.31
2022-08-07T06:57:50.937Z,99239.59
2022-08-07T07:00:18.695Z,99235.38
2022-08-07T07:02:54.289Z,99237.72
2022-08-07T07:06:03.376Z,99227.59
2022-08-07T07:08:18.634Z,99228.09
2022-08-07T07:10:56.802Z,99232.66
2022-08-07T07:13:40.525Z,99234.84
2022-08-07T07:16:18.038Z,99232.47
2022-08-07T07:18:48.789Z,99228.75
2022-08-07T07:21:19.241Z,99227.59
2022-08-07T07:24:10.247Z,99231.25
2022-08-07T07:26:36.950Z,99230.38
2022-08-07T07:29:56.258Z,99231.84
2022-08-07T07:31:52.518Z,99244.22
2022-08-07T07:34:22.010Z,99232.66
2022-08-07T07:36:57.951Z,99233.97
2022-08-07T07:39:51.999Z,99234.38
2022-08-07T07:42:25.677Z,99219.66
2022-08-07T07:44:56.359Z,99221.03
2022-08-07T07:47:23.614Z,99223.09
2022-08-07T07:50:35.166Z,99223.50
2022-08-07T07:52:37.650Z,99218.44
2022-08-07T07:55:06.673Z,99214.13
2022-08-07T07:57:51.455Z,99210.19
2022-08-07T08:00:28.950Z,99221.88
2022-08-07T08:03:06.049Z,99208.63
2022-08-07T08:05:54.496Z,99208.56
2022-08-07T08:08:34.394Z,99208.97
2022-08-07T08:11:02.309Z,99208.22
2022-08-07T08:13:33.269Z,99210.63
2022-08-07T08:16:12.689Z,99213.03
2022-08-07T08:18:39.409Z,99213.84
2022-08-07T08:21:07.549Z,99210.59
2022-08-07T08:23:53.534Z,99208.22
2022-08-07T08:26:38.640Z,99205.81
2022-08-07T08:29:05.179Z,99212.63
2022-08-07T08:32:04.822Z,99218.66
2022-08-07T08:34:27.242Z,99216.59
2022-08-07T08:36:57.831Z,99213.41
2022-08-07T08:39:25.079Z,99208.16
2022-08-07T08:42:26.031Z,99214.28
2022-08-07T08:44:52.350Z,99213.44
2022-08-07T08:47:26.543Z,99212.16
2022-08-07T08:50:04.875Z,99211.38
2022-08-07T08:52:40.815Z,99211.69
2022-08-07T08:55:20.797Z,99208.78
2022-08-07T08:58:08.581Z,99213.03
2022-08-07T09:00:51.835Z,99213.38
2022-08-07T09:03:23.359Z,99209.56
2022-08-07T09:06:11.490Z,99222.44
2022-08-07T09:08:53.391Z,99200.63
2022-08-07T09:11:24.364Z,99205.63
2022-08-07T09:14:12.686Z,99207.38
2022-08-07T09:16:42.701Z,99197.84
2022-08-07T09:19:51.000Z,99200.84
2022-08-07T09:24:28.863Z,99199.78
2022-08-07T09:25:24.847Z,99204.06
2022-08-07T09:28:00.331Z,99198.94
2022-08-07T09:30:29.593Z,99207.66
2022-08-07T09:32:59.137Z,99203.19
2022-08-07T09:36:04.710Z,99193.84
2022-08-07T09:38:59.538Z,99201.25
2022-08-07T09:41:58.539Z,99191.06
2022-08-07T09:44:58.726Z,99196.00
2022-08-07T09:48:00.888Z,99190.28
2022-08-07T09:50:45.552Z,99189.56
2022-08-07T09:53:13.321Z,99180.88
2022-08-07T09:56:03.135Z,99172.50
2022-08-07T09:59:07.840Z,99173.81
2022-08-07T10:01:58.983Z,99162.19
2022-08-07T10:04:32.755Z,99158.16
2022-08-07T10:07:26.285Z,99152.91
2022-08-07T10:10:11.880Z,99161.19
2022-08-07T10:12:58.091Z,99159.66
2022-08-07T10:15:24.435Z,99164.59
2022-08-07T10:18:08.521Z,99156.66
2022-08-07T10:20:54.565Z,99145.31
2022-08-07T10:24:06.069Z,99155.66
2022-08-07T10:26:37.276Z,99150.97
2022-08-07T10:29:11.435Z,99156.47
2022-08-07T10:31:49.529Z,99167.63
2022-08-07T10:34:18.498Z,99161.44
2022-08-07T10:36:58.319Z,99157.44
2022-08-07T10:39:41.923Z,99151.03
2022-08-07T10:42:36.737Z,99146.16
2022-08-07T10:45:11.945Z,99150.88
2022-08-07T10:47:54.965Z,99142.41
2022-08-07T10:50:26.557Z,99146.84
2022-08-07T10:52:52.948Z,99146.97
2022-08-07T10:55:38.690Z,99143.09
2022-08-07T10:58:12.954Z,99137.16
2022-08-07T11:01:02.679Z,99139.06
2022-08-07T11:03:52.998Z,99139.47
2022-08-07T11:06:40.218Z,99134.03
2022-08-07T11:10:09.859Z,99134.16
2022-08-07T11:12:31.523Z,99134.06
2022-08-07T11:15:01.033Z,99126.78
2022-08-07T11:17:43.394Z,99126.34
2022-08-07T11:20:19.745Z,99119.69
2022-08-07T11:22:51.482Z,99109.75
2022-08-07T11:25:21.706Z,99109.09
2022-08-07T11:28:01.300Z,99114.88
2022-08-07T11:30:41.532Z,99104.13
2022-08-07T11:33:17.643Z,99104.91
2022-08-07T11:35:59.736Z,99101.47
2022-08-07T11:38:30.665Z,99084.97
2022-08-07T11:40:59.506Z,99090.03
2022-08-07T11:43:41.677Z,99103.16
2022-08-07T11:46:31.962Z,99095.22
2022-08-07T11:49:51.420Z,99099.81
2022-08-07T11:52:07.691Z,99093.69
2022-08-07T11:54:54.773Z,99089.44
2022-08-07T11:58:00.093Z,99094.19
2022-08-07T12:00:19.271Z,99089.72
2022-08-07T12:02:52.195Z,99091.28
2022-08-07T12:05:48.878Z,99084.88
2022-08-07T12:08:25.823Z,99088.88
2022-08-07T12:11:21.056Z,99069.03
2022-08-07T12:14:08.478Z,99072.72
2022-08-07T12:16:36.731Z,99064.75
2022-08-07T12:19:22.517Z,99073.28
2022-08-07T12:22:36.190Z,99057.84
2022-08-07T12:25:02.311Z,99047.06
2022-08-07T12:28:09.502Z,99066.44
2022-08-07T12:30:16.347Z,99067.16
2022-08-07T12:33:01.844Z,99062.38
2022-08-07T12:35:36.329Z,99060.88
2022-08-07T12:38:10.353Z,99062.03
2022-08-07T12:40:48.600Z,99058.97
2022-08-07T12:44:02.069Z,99054.84
2022-08-07T12:46:32.191Z,99053.88
2022-08-07T12:49:09.765Z,99053.72
2022-08-07T12:52:14.393Z,99051.34
2022-08-07T12:55:05.317Z,99048.91
2022-08-07T12:57:39.081Z,99039.09
2022-08-07T13:00:33.027Z,99044.53
2022-08-07T13:04:02.013Z,99039.41
2022-08-07T13:06:54.366Z,99038.59
2022-08-07T13:10:21.958Z,99028.97
2022-08-07T13:12:36.357Z,99034.72
2022-08-07T13:15:23.421Z,99029.78
2022-08-07T13:18:08.651Z,99034.84
2022-08-07T13:20:38.956Z,99031.53
2022-08-07T13:24:00.073Z,99032.13
2022-08-07T13:26:00.790Z,99027.56
2022-08-07T13:28:48.135Z,99027.75
2022-08-07T13:31:19.508Z,99019.53
2022-08-07T13:34:34.509Z,99020.81
2022-08-07T13:36:59.496Z,99014.25
2022-08-07T13:40:33.244Z,99014.56
2022-08-07T13:42:24.839Z,99016.50
2022-08-07T13:44:55.267Z,99008.69
2022-08-07T13:48:06.842Z,99011.75
2022-08-07T13:50:32.842Z,99010.50
2022-08-07T13:53:03.156Z,99005.91
2022-08-07T13:55:29.537Z,99005.13
2022-08-07T13:58:27.924Z,99006.69
2022-08-07T14:00:58.552Z,99006.00
2022-08-07T14:03:29.997Z,99003.50
2022-08-07T14:06:11.956Z,99003.47
2022-08-07T14:08:45.359Z,98998.03
2022-08-07T14:11:17.398Z,99005.66
2022-08-07T14:13:45.138Z,98993.59
2022-08-07T14:16:16.120Z,98993.59
2022-08-07T14:18:57.069Z,98998.03
2022-08-07T14:22:01.396Z,98991.47
2022-08-07T14:24:14.255Z,98983.03
2022-08-07T14:26:50.328Z,98989.13
2022-08-07T14:32:07.785Z,98987.97
2022-08-07T14:34:34.235Z,98987.00
2022-08-07T14:37:36.341Z,98972.97
2022-08-07T14:40:17.598Z,98978.34
2022-08-07T14:43:00.669Z,98970.03
2022-08-07T14:45:46.482Z,98974.28
2022-08-07T14:51:07.345Z,98964.00
2022-08-07T14:54:08.892Z,98966.31
2022-08-07T14:56:32.007Z,98965.63
2022-08-07T15:01:53.398Z,98961.25
2022-08-07T15:04:21.756Z,98955.31
2022-08-07T15:06:51.633Z,98957.72
2022-08-07T15:13:06.310Z,98949.59
2022-08-07T15:14:57.980Z,98944.22
2022-08-07T15:17:26.541Z,98943.94
2022-08-07T15:25:36.925Z,98945.31
2022-08-07T15:28:35.866Z,98942.13
2022-08-07T15:31:05.393Z,98935.31
2022-08-07T15:33:34.035Z,98939.84
2022-08-07T15:36:05.070Z,98932.88
2022-08-07T15:38:51.066Z,98937.44
2022-08-07T15:41:23.461Z,98934.16
2022-08-07T15:43:57.341Z,98929.63
2022-08-07T15:46:31.785Z,98931.19
2022-08-07T15:49:14.454Z,98927.00
2022-08-07T15:54:26.402Z,98920.94
2022-08-07T15:56:53.060Z,98921.63
2022-08-07T15:59:20.239Z,98923.97
2022-08-07T16:02:06.913Z,98918.44
2022-08-07T16:04:35.788Z,98912.72
2022-08-07T16:07:05.081Z,98913.91
2022-08-07T16:09:52.971Z,98913.19
2022-08-07T16:12:30.289Z,98917.41
2022-08-07T16:15:05.581Z,98919.59
2022-08-07T16:18:02.245Z,98928.41
2022-08-07T16:20:33.478Z,98911.53
2022-08-07T16:23:05.539Z,98914.38
2022-08-07T16:25:56.755Z,98907.16
2022-08-07T16:30:05.548Z,98902.72
2022-08-07T16:31:51.329Z,98898.28
2022-08-07T16:34:30.466Z,98901.50
2022-08-07T16:37:03.067Z,98902.31
2022-08-07T16:40:02.047Z,98894.63
2022-08-07T16:42:47.763Z,98903.13
2022-08-07T16:46:40.660Z,98897.88
2022-08-07T16:48:27.824Z,98903.16
2022-08-07T16:51:21.706Z,98901.94
2022-08-07T16:54:19.023Z,98910.00
2022-08-07T16:56:54.733Z,98906.75
2022-08-07T16:59:46.064Z,98910.41
2022-08-07T17:02:51.502Z,98902.72
2022-08-07T17:06:28.470Z,98901.53
2022-08-07T17:08:19.402Z,98893.44
2022-08-07T17:10:54.193Z,98894.63
2022-08-07T17:13:41.630Z,98896.56
2022-08-07T17:16:20.338Z,98887.66
2022-08-07T17:18:53.568Z,98888.09
2022-08-07T17:21:24.033Z,98888.50
2022-08-07T17:23:59.409Z,98892.00
2022-08-07T17:26:59.551Z,98892.44
2022-08-07T17:30:14.101Z,98895.69
2022-08-07T17:32:30.595Z,98889.63
2022-08-07T17:35:50.246Z,98893.28
2022-08-07T17:38:32.232Z,98884.84
2022-08-07T17:42:00.729Z,98887.22
2022-08-07T17:44:02.726Z,98890.75
2022-08-07T17:46:40.649Z,98887.13
2022-08-07T17:49:14.894Z,98882.25
2022-08-07T17:52:00.508Z,98887.84
2022-08-07T17:54:53.010Z,98893.00
2022-08-07T17:57:56.502Z,98890.66
2022-08-07T18:00:33.666Z,98885.50
2022-08-07T18:03:25.526Z,98891.47
2022-08-07T18:06:06.679Z,98888.19
2022-08-07T18:09:01.128Z,98886.50
2022-08-07T18:12:16.092Z,98896.09
2022-08-07T18:14:26.257Z,98884.06
2022-08-07T18:16:59.005Z,98886.75
2022-08-07T18:21:07.961Z,98892.75
2022-08-07T18:22:26.444Z,98886.38
2022-08-07T18:25:01.652Z,98892.53
2022-08-07T18:27:55.030Z,98891.16
2022-08-07T18:30:32.604Z,98896.66
2022-08-07T18:33:15.627Z,98898.19
2022-08-07T18:36:01.119Z,98902.13
2022-08-07T18:38:58.567Z,98902.50
2022-08-07T18:41:44.742Z,98909.72
2022-08-07T18:44:30.737Z,98911.31
2022-08-07T18:47:10.834Z,98914.41
2022-08-07T18:50:31.877Z,98920.22
2022-08-07T18:53:02.937Z,98925.31
2022-08-07T18:55:41.649Z,98923.53
2022-08-07T18:58:40.174Z,98920.72
2022-08-07T19:02:17.215Z,98917.63
2022-08-07T19:04:09.627Z,98928.34
2022-08-07T19:06:53.237Z,98931.59
2022-08-07T19:09:55.512Z,98932.72
2022-08-07T19:12:10.487Z,98933.59
2022-08-07T19:15:00.563Z,98936.81
2022-08-07T19:17:59.333Z,98938.38
2022-08-07T19:21:09.034Z,98934.38
2022-08-07T19:23:58.537Z,98935.84
2022-08-07T19:26:28.705Z,98939.00
2022-08-07T19:30:57.101Z,98958.22
2022-08-07T19:32:10.366Z,98952.94
2022-08-07T19:34:34.065Z,98957.31
2022-08-07T19:37:10.327Z,98966.38
2022-08-07T19:39:57.810Z,98967.97
2022-08-07T19:42:30.479Z,98971.84
2022-08-07T19:44:58.873Z,98976.72
2022-08-07T19:47:27.865Z,98969.72
2022-08-07T19:49:58.249Z,98982.13
2022-08-07T19:52:29.698Z,98971.56
2022-08-07T19:54:58.136Z,98970.84
2022-08-07T19:57:59.984Z,98977.03
2022-08-07T20:00:27.948Z,98974.97
2022-08-07T20:02:55.871Z,98969.84
2022-08-07T20:05:29.843Z,98967.47
2022-08-07T20:07:58.417Z,98967.91
2022-08-07T20:10:51.976Z,98974.47
2022-08-07T20:13:26.921Z,98968.91
2022-08-07T20:15:55.258Z,98961.81
2022-08-07T20:18:33.654Z,98967.94
2022-08-07T20:21:42.212Z,98967.50
2022-08-07T20:24:13.842Z,98963.06
2022-08-07T20:26:45.010Z,98969.34
2022-08-07T20:29:47.847Z,98972.00
2022-08-07T20:32:11.607Z,98965.81
2022-08-07T20:34:51.574Z,98962.25
2022-08-07T20:37:25.221Z,98966.13
2022-08-07T20:40:03.847Z,98959.16
2022-08-07T20:42:31.282Z,98963.94
2022-08-07T20:44:59.115Z,98963.94
2022-08-07T20:47:55.244Z,98965.56
2022-08-07T20:50:15.232Z,98956.59
2022-08-07T20:52:51.458Z,98956.47
2022-08-07T20:55:19.949Z,98962.84
2022-08-07T20:58:02.430Z,98960.50
2022-08-07T21:00:31.218Z,98957.16
2022-08-07T21:02:57.993Z,98966.66
2022-08-07T21:05:51.038Z,98963.97
2022-08-07T21:08:14.653Z,98965.25
2022-08-07T21:10:42.299Z,98958.91
2022-08-07T21:13:11.358Z,98959.88
2022-08-07T21:15:58.754Z,98958.50
2022-08-07T21:18:29.484Z,98970.38
2022-08-07T21:20:59.881Z,98973.47
2022-08-07T21:23:26.379Z,98969.34
2022-08-07T21:26:12.086Z,98971.53
2022-08-07T21:28:48.705Z,98971.97
2022-08-07T21:31:20.849Z,98974.34
2022-08-07T21:34:02.860Z,98975.53
2022-08-07T21:36:50.323Z,98970.34
2022-08-07T21:39:45.457Z,98973.34
2022-08-07T21:42:14.944Z,98968.41
2022-08-07T21:44:52.994Z,98968.69
2022-08-07T21:47:22.847Z,98976.53
2022-08-07T21:50:01.186Z,98972.78
2022-08-07T21:52:43.749Z,98979.06
2022-08-07T21:55:28.309Z,98970.84
2022-08-07T21:58:07.916Z,98981.75
2022-08-07T22:00:39.926Z,98983.06
2022-08-07T22:03:31.741Z,98978.88
2022-08-07T22:05:58.848Z,98982.94
2022-08-07T22:08:26.591Z,98984.25
2022-08-07T22:10:55.289Z,98984.84
2022-08-07T22:13:24.436Z,98980.28
2022-08-07T22:16:43.091Z,98984.84
2022-08-07T22:19:18.238Z,98983.84
2022-08-07T22:22:04.681Z,98980.13
2022-08-07T22:24:44.021Z,98977.13
2022-08-07T22:27:19.110Z,98976.09
2022-08-07T22:29:50.189Z,98981.91
2022-08-07T22:32:25.856Z,98983.03
2022-08-07T22:34:53.344Z,98982.00
2022-08-07T22:37:19.874Z,98979.47
2022-08-07T22:39:52.448Z,98983.47
2022-08-07T22:42:54.137Z,98982.66
2022-08-07T22:46:04.867Z,98983.25
2022-08-07T22:48:31.352Z,98978.63
2022-08-07T22:50:55.531Z,98983.47
2022-08-07T22:54:05.366Z,98975.38
2022-08-07T22:56:30.444Z,98981.69
2022-08-07T22:59:23.218Z,98975.94
2022-08-07T23:01:59.215Z,98976.75
2022-08-07T23:04:32.943Z,98973.41
2022-08-07T23:07:39.798Z,98985.59
2022-08-07T23:10:37.967Z,98976.47
2022-08-07T23:12:54.383Z,98983.09
2022-08-07T23:16:06.483Z,98971.78
2022-08-07T23:18:25.786Z,98973.31
2022-08-07T23:21:07.389Z,98966.09
2022-08-07T23:24:04.098Z,98969.50
2022-08-07T23:26:50.342Z,98972.66
2022-08-07T23:29:43.832Z,98966.69
2022-08-07T23:34:21.523Z,98966.84
2022-08-07T23:35:51.211Z,98965.72
2022-08-07T23:38:36.669Z,98966.25
2022-08-07T23:41:33.347Z,98977.09
2022-08-07T23:44:01.198Z,98974.22
2022-08-07T23:46:39.682Z,98975.81
2022-08-07T23:49:49.891Z,98976.84
2022-08-07T23:52:58.477Z,98973.53
2022-08-07T23:55:10.015Z,98978.81
2022-08-07T23:57:58.458Z,98973.75
